createdAt,value
2024-01-06T00:00:18.388Z,6.49
2024-01-06T00:01:18.404Z,6.48
2024-01-06T00:02:18.355Z,6.48
2024-01-06T00:03:18.397Z,6.49
2024-01-06T00:04:18.424Z,6.49
2024-01-06T00:05:18.391Z,6.48
2024-01-06T00:06:18.369Z,6.48
2024-01-06T00:07:18.528Z,6.49
2024-01-06T00:08:18.258Z,6.51
2024-01-06T00:09:18.315Z,6.49
2024-01-06T00:10:18.341Z,6.51
2024-01-06T00:11:18.239Z,6.52
2024-01-06T00:12:18.281Z,6.51
2024-01-06T00:13:18.220Z,6.51
2024-01-06T00:14:18.234Z,6.51
2024-01-06T00:15:18.316Z,6.52
2024-01-06T00:16:18.212Z,6.51
2024-01-06T00:17:18.177Z,6.51
2024-01-06T00:18:18.284Z,6.52
2024-01-06T00:19:18.247Z,6.51
2024-01-06T00:20:18.150Z,6.49
2024-01-06T00:21:18.156Z,6.48
2024-01-06T00:22:18.111Z,6.49
2024-01-06T00:23:18.136Z,6.51
2024-01-06T00:24:18.136Z,6.49
2024-01-06T00:25:18.098Z,6.51
2024-01-06T00:26:18.083Z,6.49
2024-01-06T00:27:18.083Z,6.49
2024-01-06T00:28:18.097Z,6.51
2024-01-06T00:29:18.096Z,6.48
2024-01-06T00:30:18.081Z,6.51
2024-01-06T00:31:18.061Z,6.48
2024-01-06T00:32:18.048Z,6.48
2024-01-06T00:33:18.105Z,6.49
2024-01-06T00:34:18.088Z,6.48
2024-01-06T00:35:17.986Z,6.49
2024-01-06T00:36:18.012Z,6.51
2024-01-06T00:37:17.986Z,6.49
2024-01-06T00:38:17.973Z,6.49
2024-01-06T00:39:17.957Z,6.49
2024-01-06T00:40:17.934Z,6.48
2024-01-06T00:41:17.964Z,6.48
2024-01-06T00:42:17.949Z,6.49
2024-01-06T00:43:17.915Z,6.51
2024-01-06T00:44:17.912Z,6.51
2024-01-06T00:45:17.938Z,6.51
2024-01-06T00:46:17.894Z,6.49
2024-01-06T00:47:34.602Z,6.48
2024-01-06T00:48:18.208Z,6.49
2024-01-06T00:49:18.122Z,6.51
2024-01-06T00:50:17.921Z,6.49
2024-01-06T00:51:17.909Z,6.52
2024-01-06T00:52:17.848Z,6.52
2024-01-06T00:53:17.858Z,6.51
2024-01-06T00:54:17.893Z,6.52
2024-01-06T00:55:17.809Z,6.51
2024-01-06T00:56:18.020Z,6.51
2024-01-06T00:57:17.900Z,6.54
2024-01-06T00:58:17.833Z,6.49
2024-01-06T00:59:17.780Z,6.49
2024-01-06T01:00:17.837Z,6.49
2024-01-06T01:01:17.839Z,6.49
2024-01-06T01:02:17.764Z,6.49
2024-01-06T01:03:17.898Z,6.46
2024-01-06T01:04:17.923Z,6.46
2024-01-06T01:05:17.738Z,6.46
2024-01-06T01:06:17.803Z,6.45
2024-01-06T01:07:17.725Z,6.44
2024-01-06T01:08:17.762Z,6.44
2024-01-06T01:09:17.757Z,6.45
2024-01-06T01:10:17.657Z,6.42
2024-01-06T01:11:17.639Z,6.41
2024-01-06T01:12:17.808Z,6.39
2024-01-06T01:13:17.726Z,6.36
2024-01-06T01:14:17.688Z,6.36
2024-01-06T01:15:17.814Z,6.33
2024-01-06T01:16:17.670Z,6.31
2024-01-06T01:17:17.579Z,6.30
2024-01-06T01:18:17.782Z,6.31
2024-01-06T01:19:17.862Z,6.28
2024-01-06T01:20:17.560Z,6.28
2024-01-06T01:21:17.635Z,6.28
2024-01-06T01:22:17.558Z,6.27
2024-01-06T01:23:17.563Z,6.28
2024-01-06T01:24:17.688Z,6.26
2024-01-06T01:25:17.497Z,6.26
2024-01-06T01:26:17.533Z,6.27
2024-01-06T01:27:17.554Z,6.24
2024-01-06T01:28:17.500Z,6.26
2024-01-06T01:29:17.488Z,6.24
2024-01-06T01:30:17.792Z,6.22
2024-01-06T01:31:17.650Z,6.22
2024-01-06T01:32:17.604Z,6.22
2024-01-06T01:33:17.580Z,6.22
2024-01-06T01:34:17.618Z,6.20
2024-01-06T01:35:17.454Z,6.19
2024-01-06T01:36:17.783Z,6.19
2024-01-06T01:37:17.407Z,6.14
2024-01-06T01:38:17.403Z,6.14
2024-01-06T01:39:17.451Z,6.14
2024-01-06T01:40:17.383Z,6.12
2024-01-06T01:41:17.362Z,6.12
2024-01-06T01:42:17.481Z,6.12
2024-01-06T01:43:17.327Z,6.08
2024-01-06T01:44:17.576Z,6.11
2024-01-06T01:45:17.653Z,6.11
2024-01-06T01:46:17.520Z,6.11
2024-01-06T01:47:17.435Z,6.09
2024-01-06T01:48:17.657Z,6.08
2024-01-06T01:49:17.469Z,6.09
2024-01-06T01:50:17.298Z,6.07
2024-01-06T01:51:17.481Z,6.02
2024-01-06T01:52:17.325Z,6.02
2024-01-06T01:53:17.815Z,6.02
2024-01-06T01:54:17.757Z,6.01
2024-01-06T01:55:17.415Z,5.99
2024-01-06T01:56:17.461Z,5.94
2024-01-06T01:57:17.645Z,5.97
2024-01-06T01:58:17.482Z,5.94
2024-01-06T01:59:17.417Z,5.93
2024-01-06T02:00:17.451Z,5.93
2024-01-06T02:01:17.424Z,5.93
2024-01-06T02:02:17.455Z,5.91
2024-01-06T02:03:17.574Z,5.94
2024-01-06T02:04:17.178Z,5.91
2024-01-06T02:05:17.173Z,5.89
2024-01-06T02:06:17.309Z,5.86
2024-01-06T02:07:17.130Z,5.89
2024-01-06T02:08:17.202Z,5.87
2024-01-06T02:09:17.290Z,5.84
2024-01-06T02:10:17.109Z,5.84
2024-01-06T02:11:17.210Z,5.84
2024-01-06T02:12:17.118Z,5.83
2024-01-06T02:13:17.144Z,5.83
2024-01-06T02:14:17.118Z,5.83
2024-01-06T02:15:17.088Z,5.84
2024-01-06T02:16:17.080Z,5.83
2024-01-06T02:17:17.257Z,5.84
2024-01-06T02:18:17.453Z,5.83
2024-01-06T02:19:17.144Z,5.82
2024-01-06T02:20:17.426Z,5.83
2024-01-06T02:21:17.168Z,5.82
2024-01-06T02:22:20.157Z,5.80
2024-01-06T02:23:17.038Z,5.82
2024-01-06T02:24:17.157Z,5.79
2024-01-06T02:25:21.562Z,5.76
2024-01-06T02:26:17.046Z,5.76
2024-01-06T02:27:17.030Z,5.76
2024-01-06T02:28:16.959Z,5.76
2024-01-06T02:29:16.890Z,5.76
2024-01-06T02:30:16.998Z,5.75
2024-01-06T02:31:17.034Z,5.73
2024-01-06T02:32:17.175Z,5.75
2024-01-06T02:33:17.023Z,5.73
2024-01-06T02:34:17.053Z,5.72
2024-01-06T02:35:17.153Z,5.72
2024-01-06T02:36:17.080Z,5.71
2024-01-06T02:37:17.849Z,5.71
2024-01-06T02:38:39.039Z,5.71
2024-01-06T02:39:16.970Z,5.68
2024-01-06T02:40:16.865Z,5.69
2024-01-06T02:41:16.952Z,5.71
2024-01-06T02:42:16.800Z,5.72
2024-01-06T02:43:16.897Z,5.71
2024-01-06T02:44:17.755Z,5.71
2024-01-06T02:45:16.820Z,5.71
2024-01-06T02:46:16.781Z,5.71
2024-01-06T02:47:16.776Z,5.69
2024-01-06T02:48:16.798Z,5.72
2024-01-06T02:49:16.897Z,5.71
2024-01-06T02:50:16.705Z,5.71
2024-01-06T02:51:17.036Z,5.68
2024-01-06T02:52:16.818Z,5.68
2024-01-06T02:53:16.761Z,5.66
2024-01-06T02:54:16.759Z,5.65
2024-01-06T02:55:16.673Z,5.65
2024-01-06T02:56:16.580Z,5.64
2024-01-06T02:57:16.662Z,5.62
2024-01-06T02:58:16.669Z,5.62
2024-01-06T02:59:16.692Z,5.61
2024-01-06T03:00:16.665Z,5.59
2024-01-06T03:01:16.718Z,5.56
2024-01-06T03:02:16.712Z,5.54
2024-01-06T03:03:16.757Z,5.53
2024-01-06T03:04:16.634Z,5.51
2024-01-06T03:05:16.597Z,5.48
2024-01-06T03:06:16.603Z,5.48
2024-01-06T03:07:16.469Z,5.47
2024-01-06T03:08:17.003Z,5.48
2024-01-06T03:09:16.601Z,5.47
2024-01-06T03:10:16.626Z,5.46
2024-01-06T03:11:16.700Z,5.46
2024-01-06T03:12:16.636Z,5.46
2024-01-06T03:13:16.661Z,5.47
2024-01-06T03:14:16.631Z,5.46
2024-01-06T03:15:17.122Z,5.46
2024-01-06T03:16:16.411Z,5.43
2024-01-06T03:17:16.447Z,5.44
2024-01-06T03:18:16.494Z,5.44
2024-01-06T03:19:16.610Z,5.44
2024-01-06T03:20:16.412Z,5.43
2024-01-06T03:21:16.514Z,5.44
2024-01-06T03:22:16.520Z,5.43
2024-01-06T03:23:16.382Z,5.39
2024-01-06T03:24:16.414Z,5.39
2024-01-06T03:25:16.345Z,5.36
2024-01-06T03:26:16.305Z,5.36
2024-01-06T03:27:16.306Z,5.33
2024-01-06T03:28:16.384Z,5.36
2024-01-06T03:29:16.261Z,5.36
2024-01-06T03:30:16.319Z,5.35
2024-01-06T03:31:16.324Z,5.36
2024-01-06T03:32:16.425Z,5.33
2024-01-06T03:33:16.323Z,5.33
2024-01-06T03:34:16.298Z,5.33
2024-01-06T03:35:16.211Z,5.33
2024-01-06T03:36:16.253Z,5.32
2024-01-06T03:37:16.241Z,5.30
2024-01-06T03:38:16.209Z,5.30
2024-01-06T03:39:22.962Z,5.29
2024-01-06T03:40:16.109Z,5.28
2024-01-06T03:41:16.109Z,5.28
2024-01-06T03:42:16.092Z,5.29
2024-01-06T03:43:16.056Z,5.28
2024-01-06T03:44:16.065Z,5.26
2024-01-06T03:45:16.130Z,5.28
2024-01-06T03:46:16.044Z,5.26
2024-01-06T03:47:16.053Z,5.26
2024-01-06T03:48:16.121Z,5.26
2024-01-06T03:49:16.085Z,5.26
2024-01-06T03:50:15.978Z,5.21
2024-01-06T03:51:16.077Z,5.21
2024-01-06T03:52:16.158Z,5.20
2024-01-06T03:53:15.976Z,5.20
2024-01-06T03:54:16.781Z,5.23
2024-01-06T03:55:15.975Z,5.23
2024-01-06T03:56:15.920Z,5.21
2024-01-06T03:57:16.024Z,5.20
2024-01-06T03:58:15.902Z,5.18
2024-01-06T03:59:15.943Z,5.18
2024-01-06T04:00:15.893Z,5.18
2024-01-06T04:01:15.918Z,5.23
2024-01-06T04:02:15.893Z,5.18
2024-01-06T04:03:15.906Z,5.18
2024-01-06T04:04:15.932Z,5.15
2024-01-06T04:05:15.940Z,5.15
2024-01-06T04:06:15.852Z,5.17
2024-01-06T04:07:15.839Z,5.17
2024-01-06T04:08:15.810Z,5.15
2024-01-06T04:09:18.558Z,5.17
2024-01-06T04:10:15.795Z,5.15
2024-01-06T04:11:15.780Z,5.17
2024-01-06T04:12:15.786Z,5.17
2024-01-06T04:13:15.852Z,5.15
2024-01-06T04:14:15.787Z,5.17
2024-01-06T04:15:15.791Z,5.12
2024-01-06T04:16:15.719Z,5.12
2024-01-06T04:17:15.717Z,5.14
2024-01-06T04:18:15.811Z,5.14
2024-01-06T04:19:15.763Z,5.12
2024-01-06T04:20:15.678Z,5.10
2024-01-06T04:21:15.714Z,5.11
2024-01-06T04:22:16.370Z,5.10
2024-01-06T04:23:15.659Z,5.11
2024-01-06T04:24:15.661Z,5.07
2024-01-06T04:25:15.649Z,5.07
2024-01-06T04:26:15.645Z,5.05
2024-01-06T04:27:15.673Z,5.05
2024-01-06T04:28:15.612Z,5.04
2024-01-06T04:29:15.609Z,5.00
2024-01-06T04:30:15.656Z,5.04
2024-01-06T04:31:15.684Z,5.02
2024-01-06T04:32:15.622Z,5.02
2024-01-06T04:33:15.754Z,4.97
2024-01-06T04:34:15.717Z,4.99
2024-01-06T04:35:15.530Z,4.97
2024-01-06T04:36:15.586Z,4.96
2024-01-06T04:37:15.526Z,4.97
2024-01-06T04:38:15.489Z,4.97
2024-01-06T04:39:15.538Z,4.96
2024-01-06T04:40:15.496Z,4.96
2024-01-06T04:41:15.494Z,4.97
2024-01-06T04:42:15.475Z,4.94
2024-01-06T04:43:15.447Z,4.94
2024-01-06T04:44:15.453Z,4.93
2024-01-06T04:45:15.470Z,4.92
2024-01-06T04:46:15.430Z,4.94
2024-01-06T04:47:15.417Z,4.94
2024-01-06T04:48:15.576Z,4.93
2024-01-06T04:49:15.597Z,4.94
2024-01-06T04:50:15.390Z,4.94
2024-01-06T04:51:15.400Z,4.94
2024-01-06T04:52:32.992Z,4.93
2024-01-06T04:53:15.757Z,4.93
2024-01-06T04:54:15.673Z,4.94
2024-01-06T04:55:15.780Z,4.93
2024-01-06T04:56:15.498Z,4.92
2024-01-06T04:57:15.567Z,4.92
2024-01-06T04:58:15.460Z,4.90
2024-01-06T04:59:15.640Z,4.89
2024-01-06T05:00:15.608Z,4.89
2024-01-06T05:01:15.841Z,4.89
2024-01-06T05:02:15.625Z,4.86
2024-01-06T05:03:16.073Z,4.87
2024-01-06T05:04:15.733Z,4.86
2024-01-06T05:05:15.616Z,4.84
2024-01-06T05:06:16.099Z,4.84
2024-01-06T05:07:16.306Z,4.78
2024-01-06T05:08:15.716Z,4.75
2024-01-06T05:09:15.925Z,4.77
2024-01-06T05:10:16.345Z,4.77
2024-01-06T05:11:15.675Z,4.77
2024-01-06T05:12:15.605Z,4.75
2024-01-06T05:13:16.264Z,4.77
2024-01-06T05:14:15.746Z,4.74
2024-01-06T05:15:16.272Z,4.77
2024-01-06T05:16:15.852Z,4.75
2024-01-06T05:17:16.182Z,4.80
2024-01-06T05:18:15.707Z,4.78
2024-01-06T05:19:15.409Z,4.77
2024-01-06T05:20:15.874Z,4.75
2024-01-06T05:21:16.229Z,4.74
2024-01-06T05:22:15.208Z,4.74
2024-01-06T05:23:15.541Z,4.74
2024-01-06T05:24:15.213Z,4.74
2024-01-06T05:25:15.321Z,4.73
2024-01-06T05:26:15.337Z,4.74
2024-01-06T05:27:15.677Z,4.74
2024-01-06T05:28:15.118Z,4.73
2024-01-06T05:29:15.099Z,4.71
2024-01-06T05:30:15.142Z,4.70
2024-01-06T05:31:15.105Z,4.60
2024-01-06T05:32:15.255Z,4.58
2024-01-06T05:33:15.528Z,4.56
2024-01-06T05:34:15.147Z,4.55
2024-01-06T05:35:15.209Z,4.55
2024-01-06T05:36:15.223Z,4.55
2024-01-06T05:37:15.746Z,4.53
2024-01-06T05:38:15.992Z,4.50
2024-01-06T05:39:17.399Z,4.45
2024-01-06T05:40:16.128Z,4.42
2024-01-06T05:41:15.274Z,4.37
2024-01-06T05:42:15.483Z,4.35
2024-01-06T05:43:14.998Z,4.34
2024-01-06T05:44:14.915Z,4.34
2024-01-06T05:45:15.272Z,4.31
2024-01-06T05:46:14.950Z,4.31
2024-01-06T05:47:15.462Z,4.31
2024-01-06T05:48:15.173Z,4.31
2024-01-06T05:49:15.042Z,4.31
2024-01-06T05:50:25.029Z,4.28
2024-01-06T05:51:16.568Z,4.26
2024-01-06T05:52:14.930Z,4.26
2024-01-06T05:53:17.997Z,4.26
2024-01-06T05:54:15.598Z,4.23
2024-01-06T05:55:15.066Z,4.23
2024-01-06T05:56:20.125Z,4.22
2024-01-06T05:57:22.622Z,4.19
2024-01-06T05:58:16.057Z,4.20
2024-01-06T05:59:17.482Z,4.17
2024-01-06T06:00:15.503Z,4.14
2024-01-06T06:01:15.850Z,4.13
2024-01-06T06:02:14.987Z,4.14
2024-01-06T06:03:15.875Z,4.13
2024-01-06T06:04:22.501Z,4.12
2024-01-06T06:05:14.648Z,4.14
2024-01-06T06:06:14.653Z,4.10
2024-01-06T06:07:14.602Z,4.12
2024-01-06T06:08:14.592Z,4.10
2024-01-06T06:09:14.682Z,4.10
2024-01-06T06:10:14.814Z,4.10
2024-01-06T06:11:14.564Z,4.10
2024-01-06T06:12:14.591Z,4.10
2024-01-06T06:13:14.541Z,4.06
2024-01-06T06:14:14.563Z,4.06
2024-01-06T06:15:14.545Z,4.04
2024-01-06T06:16:14.515Z,4.04
2024-01-06T06:17:14.501Z,4.04
2024-01-06T06:18:14.706Z,4.01
2024-01-06T06:19:14.546Z,3.99
2024-01-06T06:20:14.481Z,3.98
2024-01-06T06:21:14.500Z,3.96
2024-01-06T06:22:14.480Z,3.98
2024-01-06T06:23:14.438Z,3.99
2024-01-06T06:24:14.472Z,3.99
2024-01-06T06:25:14.412Z,3.98
2024-01-06T06:26:14.405Z,3.98
2024-01-06T06:27:14.469Z,3.96
2024-01-06T06:28:14.394Z,3.92
2024-01-06T06:29:14.369Z,3.91
2024-01-06T06:30:14.537Z,3.91
2024-01-06T06:31:14.413Z,3.91
2024-01-06T06:32:14.353Z,3.88
2024-01-06T06:33:14.415Z,3.87
2024-01-06T06:34:14.807Z,3.87
2024-01-06T06:35:14.314Z,3.86
2024-01-06T06:36:14.347Z,3.84
2024-01-06T06:37:14.312Z,3.84
2024-01-06T06:38:14.309Z,3.84
2024-01-06T06:39:14.356Z,3.81
2024-01-06T06:40:14.297Z,3.80
2024-01-06T06:41:14.248Z,3.78
2024-01-06T06:42:14.284Z,3.77
2024-01-06T06:45:10.770Z,3.76
2024-01-06T06:45:16.244Z,3.74
2024-01-06T06:46:16.176Z,3.74
2024-01-06T06:47:16.178Z,3.74
2024-01-06T06:48:16.245Z,3.77
2024-01-06T06:49:16.276Z,3.78
2024-01-06T06:50:16.141Z,3.76
2024-01-06T06:51:16.183Z,3.74
2024-01-06T06:52:16.118Z,3.76
2024-01-06T06:53:16.167Z,3.74
2024-01-06T06:54:16.197Z,3.74
2024-01-06T06:55:16.093Z,3.73
2024-01-06T06:56:16.116Z,3.74
2024-01-06T06:57:16.091Z,3.73
2024-01-06T06:58:16.453Z,3.73
2024-01-06T06:59:16.059Z,3.73
2024-01-06T07:00:16.108Z,3.69
2024-01-06T07:01:16.175Z,3.66
2024-01-06T07:02:16.044Z,3.68
2024-01-06T07:03:16.205Z,3.69
2024-01-06T07:04:16.026Z,3.66
2024-01-06T07:05:15.998Z,3.63
2024-01-06T07:06:16.106Z,3.63
2024-01-06T07:07:15.914Z,3.62
2024-01-06T07:08:15.975Z,3.63
2024-01-06T07:09:15.960Z,3.65
2024-01-06T07:10:15.933Z,3.65
2024-01-06T07:11:15.886Z,3.63
2024-01-06T07:12:15.984Z,3.62
2024-01-06T07:13:15.931Z,3.60
2024-01-06T07:14:15.897Z,3.60
2024-01-06T07:15:15.880Z,3.60
2024-01-06T07:16:19.204Z,3.59
2024-01-06T07:17:15.853Z,3.62
2024-01-06T07:18:16.061Z,3.59
2024-01-06T07:19:15.883Z,3.60
2024-01-06T07:20:15.808Z,3.59
2024-01-06T07:21:15.780Z,3.59
2024-01-06T07:22:15.790Z,3.58
2024-01-06T07:23:15.782Z,3.58
2024-01-06T07:24:15.807Z,3.58
2024-01-06T07:25:15.733Z,3.55
2024-01-06T07:26:15.725Z,3.55
2024-01-06T07:27:15.740Z,3.56
2024-01-06T07:28:15.737Z,3.58
2024-01-06T07:29:15.704Z,3.56
2024-01-06T07:30:15.796Z,3.58
2024-01-06T07:31:15.813Z,3.55
2024-01-06T07:32:15.724Z,3.55
2024-01-06T07:33:15.712Z,3.51
2024-01-06T07:34:15.697Z,3.50
2024-01-06T07:35:15.685Z,3.50
2024-01-06T07:36:15.639Z,3.45
2024-01-06T07:37:15.666Z,3.41
2024-01-06T07:38:15.609Z,3.36
2024-01-06T07:39:15.616Z,3.37
2024-01-06T07:40:15.599Z,3.34
2024-01-06T07:41:15.576Z,3.32
2024-01-06T07:42:15.591Z,3.31
2024-01-06T07:43:15.550Z,3.31
2024-01-06T07:44:15.621Z,3.29
2024-01-06T07:45:15.599Z,3.29
2024-01-06T07:46:17.646Z,3.28
2024-01-06T07:47:15.665Z,3.25
2024-01-06T07:48:15.740Z,3.19
2024-01-06T07:49:15.562Z,3.21
2024-01-06T07:50:15.499Z,3.22
2024-01-06T07:51:15.519Z,3.22
2024-01-06T07:52:15.472Z,3.23
2024-01-06T07:53:15.472Z,3.22
2024-01-06T07:54:15.475Z,3.23
2024-01-06T07:55:15.455Z,3.19
2024-01-06T07:56:15.429Z,3.21
2024-01-06T07:57:15.465Z,3.21
2024-01-06T07:58:15.433Z,3.21
2024-01-06T07:59:15.404Z,3.22
2024-01-06T08:00:15.532Z,3.25
2024-01-06T08:01:15.431Z,3.23
2024-01-06T08:02:15.362Z,3.22
2024-01-06T08:03:15.587Z,3.21
2024-01-06T08:04:15.491Z,3.25
2024-01-06T08:05:15.343Z,3.25
2024-01-06T08:06:15.353Z,3.26
2024-01-06T08:07:15.538Z,3.28
2024-01-06T08:08:15.294Z,3.28
2024-01-06T08:09:15.336Z,3.26
2024-01-06T08:10:15.317Z,3.28
2024-01-06T08:11:15.288Z,3.31
2024-01-06T08:12:15.373Z,3.29
2024-01-06T08:13:15.297Z,3.31
2024-01-06T08:14:15.280Z,3.29
2024-01-06T08:15:15.302Z,3.26
2024-01-06T08:16:15.336Z,3.28
2024-01-06T08:17:17.811Z,3.29
2024-01-06T08:18:15.430Z,3.28
2024-01-06T08:19:15.403Z,3.26
2024-01-06T08:20:15.292Z,3.25
2024-01-06T08:21:15.295Z,3.21
2024-01-06T08:22:15.335Z,3.18
2024-01-06T08:23:15.260Z,3.18
2024-01-06T08:24:15.198Z,3.18
2024-01-06T08:25:15.122Z,3.18
2024-01-06T08:26:15.131Z,3.19
2024-01-06T08:27:15.159Z,3.16
2024-01-06T08:28:15.125Z,3.18
2024-01-06T08:29:15.379Z,3.21
2024-01-06T08:30:15.250Z,3.19
2024-01-06T08:31:15.345Z,3.21
2024-01-06T08:32:15.081Z,3.21
2024-01-06T08:33:15.201Z,3.21
2024-01-06T08:34:15.140Z,3.19
2024-01-06T08:35:15.070Z,3.18
2024-01-06T08:36:15.166Z,3.18
2024-01-06T08:37:15.023Z,3.16
2024-01-06T08:38:15.004Z,3.14
2024-01-06T08:39:15.022Z,3.13
2024-01-06T08:40:15.023Z,3.07
2024-01-06T08:41:14.986Z,3.07
2024-01-06T08:42:14.979Z,3.05
2024-01-06T08:43:14.954Z,3.07
2024-01-06T08:44:14.951Z,3.04
2024-01-06T08:45:15.006Z,3.04
2024-01-06T08:46:15.008Z,3.03
2024-01-06T08:47:14.936Z,3.01
2024-01-06T08:48:15.204Z,3.00
2024-01-06T08:49:14.978Z,3.01
2024-01-06T08:50:14.872Z,3.03
2024-01-06T08:51:14.889Z,3.03
2024-01-06T08:52:14.873Z,3.04
2024-01-06T08:53:14.869Z,3.03
2024-01-06T08:54:14.871Z,3.03
2024-01-06T08:55:16.060Z,3.05
2024-01-06T08:56:14.872Z,3.03
2024-01-06T08:57:14.849Z,3.05
2024-01-06T08:58:14.829Z,3.05
2024-01-06T08:59:14.794Z,3.07
2024-01-06T09:00:14.818Z,3.10
2024-01-06T09:01:14.918Z,3.10
2024-01-06T09:02:14.771Z,3.08
2024-01-06T09:03:14.891Z,3.07
2024-01-06T09:04:14.790Z,3.01
2024-01-06T09:05:14.791Z,3.03
2024-01-06T09:06:14.876Z,3.04
2024-01-06T09:07:14.741Z,3.04
2024-01-06T09:08:14.742Z,3.04
2024-01-06T09:09:14.755Z,3.05
2024-01-06T09:10:14.688Z,3.05
2024-01-06T09:11:14.666Z,3.03
2024-01-06T09:12:14.728Z,3.01
2024-01-06T09:13:14.663Z,3.03
2024-01-06T09:14:14.649Z,3.01
2024-01-06T09:15:14.633Z,3.03
2024-01-06T09:16:14.674Z,3.01
2024-01-06T09:17:14.621Z,2.98
2024-01-06T09:18:14.950Z,2.97
2024-01-06T09:19:14.752Z,2.98
2024-01-06T09:20:14.574Z,3.00
2024-01-06T09:21:14.630Z,3.01
2024-01-06T09:22:14.562Z,2.97
2024-01-06T09:23:14.568Z,3.00
2024-01-06T09:24:14.612Z,3.00
2024-01-06T09:25:14.534Z,2.97
2024-01-06T09:26:14.529Z,2.95
2024-01-06T09:27:14.819Z,2.90
2024-01-06T09:28:14.524Z,2.89
2024-01-06T09:29:16.465Z,2.87
2024-01-06T09:30:14.622Z,2.90
2024-01-06T09:31:14.511Z,2.89
2024-01-06T09:32:14.469Z,2.90
2024-01-06T09:33:14.511Z,2.90
2024-01-06T09:34:14.508Z,2.92
2024-01-06T09:35:14.508Z,2.95
2024-01-06T09:36:14.491Z,2.93
2024-01-06T09:37:14.400Z,2.97
2024-01-06T09:38:14.396Z,2.95
2024-01-06T09:39:14.419Z,2.95
2024-01-06T09:40:14.396Z,2.95
2024-01-06T09:41:14.382Z,2.95
2024-01-06T09:42:14.398Z,2.98
2024-01-06T09:43:14.384Z,2.97
2024-01-06T09:44:16.950Z,2.98
2024-01-06T09:45:14.391Z,2.95
2024-01-06T09:46:14.320Z,2.95
2024-01-06T09:47:14.302Z,2.93
2024-01-06T09:48:15.284Z,2.95
2024-01-06T09:49:14.532Z,2.98
2024-01-06T09:50:14.279Z,2.98
2024-01-06T09:51:14.321Z,3.00
2024-01-06T09:52:14.258Z,2.98
2024-01-06T09:53:14.261Z,2.97
2024-01-06T09:54:14.308Z,2.92
2024-01-06T09:55:14.229Z,2.89
2024-01-06T09:56:14.221Z,2.86
2024-01-06T09:57:14.240Z,2.86
2024-01-06T09:58:14.266Z,2.85
2024-01-06T09:59:14.217Z,2.85
2024-01-06T10:00:14.267Z,2.85
2024-01-06T10:01:14.213Z,2.86
2024-01-06T10:02:14.209Z,2.90
2024-01-06T10:03:14.250Z,2.90
2024-01-06T10:04:18.860Z,2.89
2024-01-06T10:05:14.273Z,2.90
2024-01-06T10:06:22.560Z,2.90
2024-01-06T10:07:14.156Z,2.87
2024-01-06T10:08:14.129Z,2.89
2024-01-06T10:09:14.101Z,2.89
2024-01-06T10:10:14.119Z,2.86
2024-01-06T10:11:14.103Z,2.85
2024-01-06T10:12:14.086Z,2.87
2024-01-06T10:13:14.056Z,2.89
2024-01-06T10:14:14.041Z,2.89
2024-01-06T10:15:14.111Z,2.90
2024-01-06T10:16:14.037Z,2.87
2024-01-06T10:17:14.014Z,2.89
2024-01-06T10:18:14.158Z,2.86
2024-01-06T10:19:14.099Z,2.86
2024-01-06T10:20:13.977Z,2.83
2024-01-06T10:21:14.014Z,2.83
2024-01-06T10:22:13.971Z,2.82
2024-01-06T10:23:13.938Z,2.79
2024-01-06T10:24:13.958Z,2.77
2024-01-06T10:25:13.930Z,2.79
2024-01-06T10:26:13.929Z,2.79
2024-01-06T10:27:13.923Z,2.80
2024-01-06T10:28:13.905Z,2.80
2024-01-06T10:29:13.905Z,2.77
2024-01-06T10:30:14.002Z,2.79
2024-01-06T10:31:13.945Z,2.77
2024-01-06T10:32:13.861Z,2.75
2024-01-06T10:33:13.936Z,2.75
2024-01-06T10:34:13.921Z,2.74
2024-01-06T10:35:13.849Z,2.74
2024-01-06T10:36:13.860Z,2.75
2024-01-06T10:37:13.849Z,2.77
2024-01-06T10:38:13.802Z,2.75
2024-01-06T10:39:13.802Z,2.77
2024-01-06T10:40:13.898Z,2.79
2024-01-06T10:41:13.756Z,2.75
2024-01-06T10:42:13.804Z,2.79
2024-01-06T10:43:13.766Z,2.77
2024-01-06T10:44:13.730Z,2.79
2024-01-06T10:45:13.779Z,2.79
2024-01-06T10:46:13.923Z,2.77
2024-01-06T10:47:13.720Z,2.77
2024-01-06T10:48:13.781Z,2.77
2024-01-06T10:49:14.014Z,2.77
2024-01-06T10:50:13.677Z,2.75
2024-01-06T10:51:13.809Z,2.80
2024-01-06T10:52:13.793Z,2.80
2024-01-06T10:53:13.640Z,2.75
2024-01-06T10:54:13.832Z,2.77
2024-01-06T10:55:13.640Z,2.74
2024-01-06T10:56:13.738Z,2.72
2024-01-06T10:57:13.690Z,2.72
2024-01-06T10:58:13.600Z,2.71
2024-01-06T10:59:13.599Z,2.69
2024-01-06T11:00:13.779Z,2.68
2024-01-06T11:01:16.548Z,2.68
2024-01-06T11:02:13.587Z,2.65
2024-01-06T11:03:13.640Z,2.65
2024-01-06T11:04:13.659Z,2.68
2024-01-06T11:05:13.598Z,2.65
2024-01-06T11:06:13.610Z,2.67
2024-01-06T11:07:13.551Z,2.64
2024-01-06T11:08:13.565Z,2.68
2024-01-06T11:09:13.593Z,2.67
2024-01-06T11:10:13.507Z,2.64
2024-01-06T11:11:13.464Z,2.64
2024-01-06T11:12:13.468Z,2.64
2024-01-06T11:13:13.763Z,2.65
2024-01-06T11:14:13.431Z,2.62
2024-01-06T11:15:13.461Z,2.64
2024-01-06T11:16:13.408Z,2.61
2024-01-06T11:17:13.413Z,2.64
2024-01-06T11:18:13.526Z,2.64
2024-01-06T11:19:13.587Z,2.65
2024-01-06T11:20:13.478Z,2.68
2024-01-06T11:21:13.480Z,2.71
2024-01-06T11:22:13.374Z,2.69
2024-01-06T11:23:13.362Z,2.69
2024-01-06T11:24:13.477Z,2.67
2024-01-06T11:25:13.319Z,2.69
2024-01-06T11:26:13.320Z,2.67
2024-01-06T11:27:13.397Z,2.67
2024-01-06T11:28:13.320Z,2.67
2024-01-06T11:29:13.304Z,2.62
2024-01-06T11:30:13.315Z,2.64
2024-01-06T11:31:13.492Z,2.62
2024-01-06T11:32:13.257Z,2.62
2024-01-06T11:33:13.289Z,2.64
2024-01-06T11:34:13.297Z,2.67
2024-01-06T11:35:13.272Z,2.65
2024-01-06T11:36:13.290Z,2.67
2024-01-06T11:37:13.200Z,2.68
2024-01-06T11:38:13.194Z,2.67
2024-01-06T11:39:13.174Z,2.67
2024-01-06T11:40:13.188Z,2.67
2024-01-06T11:41:13.867Z,2.67
2024-01-06T11:42:13.167Z,2.67
2024-01-06T11:43:13.233Z,2.67
2024-01-06T11:44:13.128Z,2.68
2024-01-06T11:45:13.154Z,2.69
2024-01-06T11:46:13.188Z,2.67
2024-01-06T11:47:13.132Z,2.65
2024-01-06T11:48:13.341Z,2.62
2024-01-06T11:49:13.156Z,2.64
2024-01-06T11:50:13.073Z,2.65
2024-01-06T11:51:13.072Z,2.65
2024-01-06T11:52:13.049Z,2.67
2024-01-06T11:53:13.110Z,2.67
2024-01-06T11:54:13.048Z,2.65
2024-01-06T11:55:13.091Z,2.67
2024-01-06T11:56:13.041Z,2.67
2024-01-06T11:57:12.994Z,2.68
2024-01-06T11:58:13.020Z,2.65
2024-01-06T11:59:13.012Z,2.67
2024-01-06T12:00:12.975Z,2.61
2024-01-06T12:01:13.088Z,2.61
2024-01-06T12:02:12.947Z,2.56
2024-01-06T12:03:12.950Z,2.56
2024-01-06T12:04:12.973Z,2.57
2024-01-06T12:05:12.929Z,2.61
2024-01-06T12:06:12.984Z,2.61
2024-01-06T12:07:12.947Z,2.61
2024-01-06T12:08:12.917Z,2.61
2024-01-06T12:09:12.903Z,2.61
2024-01-06T12:10:12.875Z,2.62
2024-01-06T12:11:12.856Z,2.61
2024-01-06T12:12:12.878Z,2.60
2024-01-06T12:13:14.465Z,2.60
2024-01-06T12:14:12.930Z,2.57
2024-01-06T12:15:12.816Z,2.56
2024-01-06T12:16:12.868Z,2.61
2024-01-06T12:17:12.827Z,2.60
2024-01-06T12:18:12.883Z,2.61
2024-01-06T12:19:12.884Z,2.60
2024-01-06T12:20:12.856Z,2.60
2024-01-06T12:21:12.809Z,2.62
2024-01-06T12:22:12.779Z,2.65
2024-01-06T12:23:12.759Z,2.64
2024-01-06T12:24:12.747Z,2.61
2024-01-06T12:25:12.767Z,2.64
2024-01-06T12:26:12.726Z,2.61
2024-01-06T12:27:12.704Z,2.60
2024-01-06T12:28:12.695Z,2.57
2024-01-06T12:29:12.677Z,2.57
2024-01-06T12:30:12.694Z,2.54
2024-01-06T12:31:12.733Z,2.56
2024-01-06T12:32:12.701Z,2.57
2024-01-06T12:33:12.787Z,2.56
2024-01-06T12:34:12.762Z,2.54
2024-01-06T12:35:12.640Z,2.53
2024-01-06T12:36:21.161Z,2.53
2024-01-06T12:37:12.676Z,2.53
2024-01-06T12:38:12.591Z,2.54
2024-01-06T12:39:12.612Z,2.54
2024-01-06T12:40:12.571Z,2.54
2024-01-06T12:41:12.599Z,2.51
2024-01-06T12:42:12.561Z,2.47
2024-01-06T12:43:12.583Z,2.47
2024-01-06T12:44:12.547Z,2.44
2024-01-06T12:45:12.531Z,2.44
2024-01-06T12:46:12.513Z,2.44
2024-01-06T12:47:12.506Z,2.44
2024-01-06T12:48:12.585Z,2.46
2024-01-06T12:49:12.664Z,2.46
2024-01-06T12:50:12.528Z,2.47
2024-01-06T12:51:12.461Z,2.47
2024-01-06T12:52:12.456Z,2.47
2024-01-06T12:53:12.454Z,2.49
2024-01-06T12:54:12.462Z,2.47
2024-01-06T12:55:12.525Z,2.46
2024-01-06T12:56:12.398Z,2.43
2024-01-06T12:57:12.426Z,2.42
2024-01-06T12:58:12.409Z,2.43
2024-01-06T12:59:12.442Z,2.43
2024-01-06T13:00:12.386Z,2.43
2024-01-06T13:01:12.474Z,2.43
2024-01-06T13:02:12.369Z,2.43
2024-01-06T13:03:12.995Z,2.42
2024-01-06T13:04:12.477Z,2.42
2024-01-06T13:05:12.390Z,2.38
2024-01-06T13:06:12.318Z,2.36
2024-01-06T13:07:12.372Z,2.35
2024-01-06T13:08:12.295Z,2.32
2024-01-06T13:09:12.310Z,2.32
2024-01-06T13:10:12.316Z,2.31
2024-01-06T13:11:12.300Z,2.33
2024-01-06T13:12:12.254Z,2.33
2024-01-06T13:13:12.278Z,2.33
2024-01-06T13:14:12.236Z,2.36
2024-01-06T13:15:12.598Z,2.35
2024-01-06T13:16:12.332Z,2.38
2024-01-06T13:17:12.220Z,2.36
2024-01-06T13:18:12.296Z,2.39
2024-01-06T13:19:12.399Z,2.39